N444BT LLIB-LLHA
Flight info
| Callsign | N444BT |
|---|---|
| Flight time | 0h 17m |
| Altitude | 3000 |
| Route | CVFR |
| Aircraft | TBM9/L-SDE/C |
Departure
| Time | 2026-05-01 10:45 |
|---|---|
| Airport | Rosh Pina Airport (LLIB) |
Arrival
| Time | 2026-05-01 11:02 |
|---|---|
| Airport | Uri Michaeli Haifa International Airport (LLHA) |
| Time | Latitude | Longitude | Altitude | Speed | Heading |
|---|---|---|---|---|---|
| 2026-05-01 10:37 | 32.97797 | 35.57278 | 943 ft | 0 kts | 270° |
| 2026-05-01 10:38 | 32.97796 | 35.57278 | 943 ft | 0 kts | 81° |
| 2026-05-01 10:43 | 32.97797 | 35.57279 | 944 ft | 3 kts | 80° |
| 2026-05-01 10:43 | 32.97805 | 35.57326 | 946 ft | 0 kts | 59° |
| 2026-05-01 10:44 | 32.97812 | 35.57341 | 946 ft | 4 kts | 54° |
| 2026-05-01 10:44 | 32.97843 | 35.57358 | 947 ft | 6 kts | 353° |
| 2026-05-01 10:44 | 32.97959 | 35.57282 | 948 ft | 50 kts | 331° |
| 2026-05-01 10:45 | 32.98465 | 35.56947 | 1015 ft | 107 kts | 328° |
| 2026-05-01 10:45 | 32.99224 | 35.56402 | 1330 ft | 141 kts | 330° |
| 2026-05-01 10:45 | 33.00174 | 35.56020 | 1731 ft | 164 kts | 8° |
| 2026-05-01 10:45 | 33.01078 | 35.56946 | 1861 ft | 189 kts | 82° |
| 2026-05-01 10:46 | 33.00612 | 35.58370 | 2151 ft | 206 kts | 155° |
| 2026-05-01 10:46 | 32.99239 | 35.58617 | 2144 ft | 199 kts | 174° |
| 2026-05-01 10:46 | 32.97879 | 35.59020 | 2492 ft | 197 kts | 164° |
| 2026-05-01 10:46 | 32.96538 | 35.59175 | 2869 ft | 197 kts | 191° |
| 2026-05-01 10:47 | 32.95251 | 35.58660 | 3181 ft | 187 kts | 203° |
| 2026-05-01 10:47 | 32.94092 | 35.58136 | 3114 ft | 174 kts | 202° |
| 2026-05-01 10:47 | 32.92961 | 35.57615 | 3054 ft | 177 kts | 201° |
| 2026-05-01 10:47 | 32.91810 | 35.56988 | 3085 ft | 186 kts | 210° |
| 2026-05-01 10:48 | 32.90668 | 35.56331 | 3073 ft | 169 kts | 206° |
| 2026-05-01 10:48 | 32.89674 | 35.55725 | 3080 ft | 167 kts | 214° |
| 2026-05-01 10:48 | 32.88720 | 35.54821 | 3110 ft | 180 kts | 221° |
| 2026-05-01 10:48 | 32.87751 | 35.53830 | 3162 ft | 189 kts | 222° |
| 2026-05-01 10:49 | 32.86875 | 35.52664 | 3183 ft | 191 kts | 245° |
| 2026-05-01 10:49 | 32.86470 | 35.51185 | 3217 ft | 182 kts | 262° |
| 2026-05-01 10:49 | 32.86282 | 35.49765 | 3227 ft | 165 kts | 261° |
| 2026-05-01 10:49 | 32.86097 | 35.48420 | 3150 ft | 162 kts | 262° |
| 2026-05-01 10:50 | 32.85878 | 35.47127 | 3109 ft | 160 kts | 258° |
| 2026-05-01 10:50 | 32.85595 | 35.45850 | 3024 ft | 160 kts | 257° |
| 2026-05-01 10:50 | 32.85481 | 35.44522 | 2883 ft | 175 kts | 274° |
| 2026-05-01 10:50 | 32.85660 | 35.42999 | 2992 ft | 195 kts | 279° |
| 2026-05-01 10:51 | 32.85853 | 35.41369 | 3174 ft | 201 kts | 275° |
| 2026-05-01 10:51 | 32.85882 | 35.39682 | 3191 ft | 207 kts | 268° |
| 2026-05-01 10:51 | 32.85906 | 35.38062 | 3237 ft | 180 kts | 276° |
| 2026-05-01 10:51 | 32.85926 | 35.36604 | 2918 ft | 180 kts | 271° |
| 2026-05-01 10:52 | 32.85967 | 35.35159 | 2787 ft | 166 kts | 271° |
| 2026-05-01 10:52 | 32.85984 | 35.33842 | 2903 ft | 159 kts | 270° |
| 2026-05-01 10:52 | 32.86098 | 35.32487 | 2987 ft | 171 kts | 279° |
| 2026-05-01 10:52 | 32.86306 | 35.31057 | 2953 ft | 172 kts | 282° |
| 2026-05-01 10:53 | 32.86516 | 35.29793 | 2839 ft | 152 kts | 279° |
| 2026-05-01 10:53 | 32.86649 | 35.28541 | 2826 ft | 152 kts | 272° |
| 2026-05-01 10:53 | 32.86355 | 35.27349 | 2826 ft | 154 kts | 245° |
| 2026-05-01 10:53 | 32.85941 | 35.26129 | 2817 ft | 160 kts | 254° |
| 2026-05-01 10:54 | 32.85638 | 35.24851 | 2856 ft | 161 kts | 255° |
| 2026-05-01 10:54 | 32.85374 | 35.23673 | 2757 ft | 137 kts | 256° |
| 2026-05-01 10:54 | 32.85115 | 35.22533 | 2659 ft | 146 kts | 254° |
| 2026-05-01 10:54 | 32.84826 | 35.21399 | 2654 ft | 135 kts | 249° |
| 2026-05-01 10:55 | 32.84497 | 35.20434 | 2506 ft | 119 kts | 250° |
| 2026-05-01 10:55 | 32.84099 | 35.19496 | 2707 ft | 132 kts | 243° |
| 2026-05-01 10:55 | 32.83721 | 35.18532 | 2648 ft | 139 kts | 246° |
| 2026-05-01 10:55 | 32.83320 | 35.17465 | 2771 ft | 133 kts | 247° |
| 2026-05-01 10:56 | 32.82918 | 35.16382 | 2836 ft | 152 kts | 248° |
| 2026-05-01 10:56 | 32.82514 | 35.15139 | 2805 ft | 164 kts | 251° |
| 2026-05-01 10:56 | 32.82199 | 35.13835 | 2803 ft | 165 kts | 259° |
| 2026-05-01 10:56 | 32.81966 | 35.12569 | 2785 ft | 152 kts | 261° |
| 2026-05-01 10:57 | 32.81838 | 35.11333 | 2738 ft | 151 kts | 263° |
| 2026-05-01 10:57 | 32.81732 | 35.10034 | 2742 ft | 173 kts | 268° |
| 2026-05-01 10:57 | 32.81640 | 35.08571 | 2570 ft | 170 kts | 266° |
| 2026-05-01 10:57 | 32.81512 | 35.07207 | 2167 ft | 163 kts | 258° |
| 2026-05-01 10:58 | 32.80735 | 35.06371 | 1671 ft | 161 kts | 183° |
| 2026-05-01 10:58 | 32.79744 | 35.06491 | 1794 ft | 132 kts | 218° |
| 2026-05-01 10:58 | 32.79767 | 35.05513 | 1651 ft | 155 kts | 307° |
| 2026-05-01 10:58 | 32.80517 | 35.04482 | 1887 ft | 167 kts | 315° |
| 2026-05-01 10:59 | 32.81543 | 35.03699 | 1994 ft | 183 kts | 348° |
| 2026-05-01 10:59 | 32.82767 | 35.03707 | 1638 ft | 165 kts | 11° |
| 2026-05-01 10:59 | 32.83478 | 35.04584 | 1187 ft | 158 kts | 82° |
| 2026-05-01 10:59 | 32.82942 | 35.05543 | 988 ft | 150 kts | 159° |
| 2026-05-01 11:00 | 32.81981 | 35.06051 | 986 ft | 152 kts | 155° |
| 2026-05-01 11:00 | 32.81020 | 35.06659 | 974 ft | 160 kts | 152° |
| 2026-05-01 11:00 | 32.80074 | 35.07280 | 1137 ft | 151 kts | 151° |
| 2026-05-01 11:00 | 32.79193 | 35.07466 | 1099 ft | 137 kts | 214° |
| 2026-05-01 11:01 | 32.78571 | 35.06453 | 864 ft | 146 kts | 247° |
| 2026-05-01 11:01 | 32.78716 | 35.05631 | 786 ft | 96 kts | 308° |
| 2026-05-01 11:01 | 32.79242 | 35.05094 | 593 ft | 99 kts | 331° |
| 2026-05-01 11:01 | 32.79879 | 35.04857 | 178 ft | 92 kts | 343° |
| 2026-05-01 11:02 | 32.80425 | 35.04633 | 49 ft | 77 kts | 340° |
| 2026-05-01 11:02 | 32.80895 | 35.04426 | 24 ft | 63 kts | 338° |
| 2026-05-01 11:02 | 32.81114 | 35.04334 | 21 ft | 6 kts | 337° |
| 2026-05-01 11:02 | 32.81159 | 35.04241 | 22 ft | 20 kts | 248° |
| 2026-05-01 11:03 | 32.81123 | 35.04200 | 20 ft | 1 kts | 262° |
| 2026-05-01 11:03 | 32.81123 | 35.04199 | 20 ft | 0 kts | 275° |